createdAt,value
2023-05-19T00:01:48.635Z,6.47
2023-05-19T00:04:15.467Z,7.40
2023-05-19T00:06:42.413Z,4.15
2023-05-19T00:09:09.893Z,5.68
2023-05-19T00:11:37.368Z,7.10
2023-05-19T00:14:04.736Z,6.13
2023-05-19T00:16:31.548Z,5.20
2023-05-19T00:19:02.054Z,6.60
2023-05-19T00:21:29.216Z,6.35
2023-05-19T00:23:56.253Z,6.10
2023-05-19T00:26:23.190Z,5.05
2023-05-19T00:28:49.992Z,4.25
2023-05-19T00:31:16.448Z,4.88
2023-05-19T00:33:43.217Z,5.45
2023-05-19T00:36:09.786Z,4.80
2023-05-19T00:38:36.859Z,5.57
2023-05-19T00:41:05.167Z,6.63
2023-05-19T00:43:31.955Z,6.10
2023-05-19T00:45:58.458Z,4.38
2023-05-19T00:48:25.411Z,5.18
2023-05-19T00:50:53.705Z,5.63
2023-05-19T00:53:20.356Z,4.47
2023-05-19T00:55:47.869Z,6.85
2023-05-19T00:58:15.186Z,5.40
2023-05-19T01:00:42.733Z,7.50
2023-05-19T01:03:12.864Z,4.65
2023-05-19T01:05:40.195Z,4.85
2023-05-19T01:08:06.802Z,5.20
2023-05-19T01:10:33.538Z,6.13
2023-05-19T01:13:02.985Z,6.68
2023-05-19T01:15:29.680Z,8.75
2023-05-19T01:18:01.914Z,5.47
2023-05-19T01:20:34.935Z,4.90
2023-05-19T01:23:05.727Z,5.63
2023-05-19T01:25:47.267Z,4.65
2023-05-19T01:28:14.196Z,6.38
2023-05-19T01:30:41.594Z,4.70
2023-05-19T01:33:10.050Z,5.38
2023-05-19T01:35:37.562Z,5.85
2023-05-19T01:38:04.752Z,7.60
2023-05-19T01:40:32.153Z,7.30
2023-05-19T01:42:59.907Z,7.30
2023-05-19T01:45:27.891Z,7.57
2023-05-19T01:47:56.810Z,5.75
2023-05-19T01:50:23.889Z,7.68
2023-05-19T01:52:50.956Z,4.70
2023-05-19T01:55:17.526Z,5.45
2023-05-19T01:58:00.629Z,9.05
2023-05-19T02:00:53.164Z,6.00
2023-05-19T02:03:26.608Z,6.72
2023-05-19T02:05:58.327Z,6.05
2023-05-19T02:08:31.250Z,10.27
2023-05-19T02:11:00.872Z,5.32
2023-05-19T02:13:31.367Z,5.45
2023-05-19T02:16:01.774Z,7.60
2023-05-19T02:18:30.043Z,8.48
2023-05-19T02:20:56.656Z,5.13
2023-05-19T02:23:23.362Z,4.50
2023-05-19T02:25:49.970Z,6.95
2023-05-19T02:28:16.793Z,10.10
2023-05-19T02:30:43.245Z,7.57
2023-05-19T02:33:11.515Z,6.22
2023-05-19T02:35:38.088Z,7.93
2023-05-19T02:38:05.192Z,7.90
2023-05-19T02:40:32.010Z,5.53
2023-05-19T02:42:59.033Z,6.88
2023-05-19T02:45:28.629Z,9.27
2023-05-19T02:47:55.404Z,7.45
2023-05-19T02:50:22.638Z,8.27
2023-05-19T02:52:49.203Z,7.90
2023-05-19T02:55:17.211Z,7.97
2023-05-19T02:57:46.335Z,6.60
2023-05-19T03:00:13.198Z,6.10
2023-05-19T03:02:40.028Z,5.90
2023-05-19T03:05:07.030Z,6.72
2023-05-19T03:07:33.896Z,5.88
2023-05-19T03:10:04.391Z,9.35
2023-05-19T03:12:31.779Z,7.05
2023-05-19T03:14:58.362Z,8.38
2023-05-19T03:17:25.005Z,8.25
2023-05-19T03:19:51.902Z,7.07
2023-05-19T03:22:18.927Z,9.40
2023-05-19T03:24:45.463Z,10.30
2023-05-19T03:27:12.463Z,11.80
2023-05-19T03:29:39.187Z,9.27
2023-05-19T03:32:05.953Z,10.25
2023-05-19T03:34:32.884Z,9.88
2023-05-19T03:36:59.828Z,9.07
2023-05-19T03:39:26.576Z,11.32
2023-05-19T03:41:53.120Z,8.27
2023-05-19T03:44:19.561Z,11.85
2023-05-19T03:46:46.322Z,8.98
2023-05-19T03:49:14.043Z,9.55
2023-05-19T03:51:41.160Z,9.95
2023-05-19T03:54:07.681Z,7.28
2023-05-19T03:56:34.381Z,9.88
2023-05-19T03:59:00.953Z,8.88
2023-05-19T04:01:27.676Z,6.25
2023-05-19T04:03:55.208Z,9.18
2023-05-19T04:06:22.106Z,10.15
2023-05-19T04:08:48.541Z,9.55
2023-05-19T04:11:15.197Z,7.57
2023-05-19T04:13:41.643Z,9.65
2023-05-19T04:16:08.182Z,6.07
2023-05-19T04:18:34.895Z,7.50
2023-05-19T04:21:02.094Z,9.88
2023-05-19T04:23:28.666Z,8.98
2023-05-19T04:25:57.161Z,8.60
2023-05-19T04:28:24.298Z,7.57
2023-05-19T04:30:51.727Z,9.15
2023-05-19T04:33:20.271Z,5.90
2023-05-19T04:35:48.070Z,7.10
2023-05-19T04:38:18.935Z,8.15
2023-05-19T04:40:45.608Z,5.82
2023-05-19T04:43:12.226Z,6.50
2023-05-19T04:45:42.512Z,5.07
2023-05-19T04:48:09.063Z,5.70
2023-05-19T04:50:38.650Z,7.70
2023-05-19T04:53:05.216Z,7.82
2023-05-19T04:55:33.404Z,5.85
2023-05-19T04:57:59.922Z,8.23
2023-05-19T05:00:26.631Z,6.82
2023-05-19T05:02:53.410Z,6.72
2023-05-19T05:05:20.070Z,10.98
2023-05-19T05:07:46.732Z,9.43
2023-05-19T05:10:13.244Z,8.15
2023-05-19T05:12:42.648Z,8.38
2023-05-19T05:17:36.258Z,6.72
2023-05-19T05:20:04.627Z,7.22
2023-05-19T05:22:31.192Z,8.30
2023-05-19T05:24:58.083Z,8.40
2023-05-19T05:27:24.603Z,9.57
2023-05-19T05:29:51.686Z,9.43
2023-05-19T05:32:18.455Z,7.43
2023-05-19T05:34:45.228Z,7.10
2023-05-19T05:37:13.162Z,5.50
2023-05-19T05:42:12.061Z,5.20
2023-05-19T05:44:38.841Z,5.65
2023-05-19T05:47:18.712Z,6.75
2023-05-19T05:49:48.441Z,4.85
2023-05-19T05:52:15.581Z,5.88
2023-05-19T05:54:42.238Z,5.72
2023-05-19T05:57:09.110Z,6.18
2023-05-19T05:59:35.756Z,6.75
2023-05-19T06:02:02.497Z,5.65
2023-05-19T06:04:29.003Z,8.00
2023-05-19T06:07:01.037Z,5.63
2023-05-19T06:09:28.217Z,9.15
2023-05-19T06:11:54.730Z,5.93
2023-05-19T06:14:21.189Z,5.40
2023-05-19T06:16:48.278Z,10.77
2023-05-19T06:19:14.975Z,9.35
2023-05-19T06:21:43.433Z,5.82
2023-05-19T06:24:10.288Z,4.88
2023-05-19T06:26:46.071Z,7.70
2023-05-19T06:29:12.614Z,6.68
2023-05-19T06:31:39.133Z,5.32
2023-05-19T06:34:05.813Z,4.28
2023-05-19T06:36:32.490Z,6.78
2023-05-19T06:39:01.258Z,4.75
2023-05-19T06:41:29.018Z,6.07
2023-05-19T06:43:56.052Z,5.03
2023-05-19T06:46:22.545Z,8.02
2023-05-19T06:48:49.199Z,7.32
2023-05-19T06:51:21.822Z,5.97
2023-05-19T06:53:48.923Z,5.28
2023-05-19T06:56:16.120Z,6.03
2023-05-19T06:58:42.655Z,4.80
2023-05-19T07:01:09.246Z,4.32
2023-05-19T07:03:35.902Z,4.57
2023-05-19T07:06:02.639Z,8.10
2023-05-19T07:08:30.039Z,5.05
2023-05-19T07:10:56.635Z,5.15
2023-05-19T07:13:25.340Z,5.72
2023-05-19T07:15:55.905Z,4.53
2023-05-19T07:18:22.823Z,5.15
2023-05-19T07:20:49.351Z,4.22
2023-05-19T07:23:17.228Z,5.45
2023-05-19T07:25:44.188Z,4.47
2023-05-19T07:28:10.893Z,5.25
2023-05-19T07:30:37.854Z,4.22
2023-05-19T07:33:04.505Z,5.35
2023-05-19T07:35:31.471Z,4.38
2023-05-19T07:37:58.074Z,4.90
2023-05-19T07:40:24.753Z,6.82
2023-05-19T07:42:51.447Z,5.28
2023-05-19T07:45:17.986Z,4.85
2023-05-19T07:47:44.585Z,4.93
2023-05-19T07:50:11.348Z,4.05
2023-05-19T07:52:38.040Z,3.55
2023-05-19T07:55:04.694Z,5.38
2023-05-19T07:57:32.442Z,5.38
2023-05-19T08:00:00.659Z,3.95
2023-05-19T08:02:32.029Z,5.35
2023-05-19T08:04:58.804Z,6.40
2023-05-19T08:07:25.374Z,4.45
2023-05-19T08:09:51.906Z,5.10
2023-05-19T08:12:18.399Z,3.75
2023-05-19T08:14:45.036Z,4.82
2023-05-19T08:17:11.554Z,6.65
2023-05-19T08:19:38.138Z,4.00
2023-05-19T08:22:04.792Z,4.18
2023-05-19T08:24:32.918Z,4.05
2023-05-19T08:26:59.857Z,4.53
2023-05-19T08:29:26.645Z,3.75
2023-05-19T08:31:53.824Z,6.05
2023-05-19T08:34:20.950Z,5.03
2023-05-19T08:36:48.004Z,4.63
2023-05-19T08:39:16.358Z,6.70
2023-05-19T08:41:42.886Z,4.22
2023-05-19T08:44:09.630Z,3.85
2023-05-19T08:46:36.427Z,5.53
2023-05-19T08:49:09.687Z,5.88
2023-05-19T08:51:39.459Z,4.70
2023-05-19T08:54:13.119Z,7.75
2023-05-19T08:56:39.843Z,5.78
2023-05-19T08:59:11.309Z,4.72
2023-05-19T09:04:10.028Z,3.78
2023-05-19T09:06:36.628Z,5.43
2023-05-19T09:09:04.165Z,4.88
2023-05-19T09:11:31.085Z,5.30
2023-05-19T09:13:57.511Z,4.18
2023-05-19T09:16:25.971Z,5.40
2023-05-19T09:18:56.276Z,3.70
2023-05-19T09:21:32.434Z,3.70
2023-05-19T09:24:03.970Z,4.82
2023-05-19T09:26:37.581Z,6.65
2023-05-19T09:29:10.904Z,4.55
2023-05-19T09:31:37.393Z,6.40
2023-05-19T09:34:03.892Z,6.15
2023-05-19T09:36:36.720Z,3.47
2023-05-19T09:39:12.444Z,4.15
2023-05-19T09:41:38.925Z,4.55
2023-05-19T09:44:07.316Z,4.40
2023-05-19T09:46:35.917Z,4.68
2023-05-19T09:49:09.382Z,6.22
2023-05-19T09:51:37.572Z,6.03
2023-05-19T09:54:06.653Z,4.75
2023-05-19T09:56:35.970Z,6.22
2023-05-19T09:59:03.893Z,4.25
2023-05-19T10:01:33.899Z,4.50
2023-05-19T10:04:00.743Z,4.30
2023-05-19T10:06:27.301Z,5.10
2023-05-19T10:08:54.754Z,5.80
2023-05-19T10:11:23.161Z,6.80
2023-05-19T10:13:51.520Z,4.35
2023-05-19T10:16:18.792Z,6.25
2023-05-19T10:18:45.489Z,5.90
2023-05-19T10:21:13.328Z,3.88
2023-05-19T10:23:39.906Z,5.75
2023-05-19T10:26:07.240Z,4.72
2023-05-19T10:28:35.809Z,5.63
2023-05-19T10:31:05.142Z,4.90
2023-05-19T10:44:20.118Z,4.72
2023-05-19T10:46:46.835Z,4.05
2023-05-19T10:49:20.151Z,2.92
2023-05-19T10:51:46.814Z,3.38
2023-05-19T10:54:16.037Z,6.00
2023-05-19T10:56:43.840Z,6.00
2023-05-19T11:01:38.332Z,3.58
2023-05-19T11:04:12.287Z,3.97
2023-05-19T11:06:40.399Z,3.78
2023-05-19T11:09:10.356Z,2.53
2023-05-19T11:11:47.035Z,5.10
2023-05-19T11:14:14.403Z,3.65
2023-05-19T11:16:45.806Z,4.60
2023-05-19T11:19:44.773Z,4.30
2023-05-19T11:22:12.354Z,4.78
2023-05-19T11:24:40.146Z,4.28
2023-05-19T11:27:26.255Z,7.07
2023-05-19T11:29:53.415Z,5.20
2023-05-19T11:32:21.448Z,5.75
2023-05-19T11:37:14.897Z,4.65
2023-05-19T11:39:41.426Z,5.00
2023-05-19T11:42:11.452Z,3.97
2023-05-19T11:44:38.598Z,4.88
2023-05-19T11:47:05.868Z,6.38
2023-05-19T11:49:32.421Z,3.30
2023-05-19T11:52:00.229Z,6.13
2023-05-19T11:54:32.101Z,4.57
2023-05-19T11:57:03.201Z,5.43
2023-05-19T11:59:35.644Z,3.97
2023-05-19T12:02:04.047Z,4.32
2023-05-19T12:06:57.182Z,4.82
2023-05-19T12:09:32.609Z,6.63
2023-05-19T12:11:59.162Z,2.97
2023-05-19T12:14:31.980Z,4.43
2023-05-19T12:16:58.496Z,3.15
2023-05-19T12:19:25.927Z,4.78
2023-05-19T12:24:19.872Z,5.80
2023-05-19T12:26:47.184Z,10.00
2023-05-19T12:29:13.920Z,6.03
2023-05-19T12:31:40.529Z,7.03
2023-05-19T12:34:07.142Z,4.65
2023-05-19T12:36:33.966Z,6.90
2023-05-19T12:39:00.823Z,5.40
2023-05-19T12:41:30.126Z,5.05
2023-05-19T12:43:56.652Z,4.88
2023-05-19T12:46:23.363Z,6.82
2023-05-19T12:48:49.942Z,6.38
2023-05-19T12:51:23.758Z,4.47
2023-05-19T12:53:50.390Z,6.82
2023-05-19T12:56:17.134Z,3.85
2023-05-19T12:58:44.093Z,5.95
2023-05-19T13:01:17.496Z,5.13
2023-05-19T13:03:44.618Z,4.10
2023-05-19T13:06:11.771Z,5.20
2023-05-19T13:08:41.540Z,4.35
2023-05-19T13:11:08.206Z,4.63
2023-05-19T13:13:34.615Z,4.85
2023-05-19T13:16:01.157Z,5.90
2023-05-19T13:18:27.799Z,4.33
2023-05-19T13:20:54.975Z,4.70
2023-05-19T13:23:21.736Z,5.22
2023-05-19T13:25:48.289Z,5.68
2023-05-19T13:28:15.106Z,4.07
2023-05-19T13:30:43.327Z,5.88
2023-05-19T13:33:09.860Z,5.38
2023-05-19T13:35:39.279Z,5.03
2023-05-19T13:38:06.794Z,4.90
2023-05-19T13:43:02.262Z,4.50
2023-05-19T13:45:29.135Z,5.95
2023-05-19T13:47:56.054Z,4.90
2023-05-19T13:50:22.597Z,4.85
2023-05-19T13:52:49.137Z,7.88
2023-05-19T13:55:19.066Z,4.67
2023-05-19T13:57:45.588Z,5.43
2023-05-19T14:00:12.277Z,6.10
2023-05-19T14:02:39.306Z,4.20
2023-05-19T14:05:06.330Z,6.38
2023-05-19T14:07:34.765Z,4.85
2023-05-19T14:10:01.948Z,6.05
2023-05-19T14:12:40.396Z,4.68
2023-05-19T14:15:17.232Z,5.65
2023-05-19T14:17:43.729Z,6.55
2023-05-19T14:20:10.462Z,5.93
2023-05-19T14:22:36.955Z,6.35
2023-05-19T14:25:03.737Z,4.93
2023-05-19T14:27:30.327Z,4.05
2023-05-19T14:29:56.867Z,3.55
2023-05-19T14:32:23.491Z,5.93
2023-05-19T14:34:52.946Z,5.15
2023-05-19T14:37:19.769Z,4.68
2023-05-19T14:39:46.189Z,4.47
2023-05-19T14:42:13.803Z,3.05
2023-05-19T14:44:40.326Z,4.28
2023-05-19T14:47:07.562Z,4.30
2023-05-19T14:49:34.277Z,4.90
2023-05-19T14:52:01.020Z,3.53
2023-05-19T14:54:27.507Z,3.67
2023-05-19T14:56:53.907Z,3.58
2023-05-19T14:59:21.645Z,5.00
2023-05-19T15:04:17.169Z,2.05
2023-05-19T15:06:44.229Z,3.08
2023-05-19T15:09:14.408Z,3.30
2023-05-19T15:11:40.878Z,2.72
2023-05-19T15:14:07.352Z,4.53
2023-05-19T15:16:33.762Z,2.55
2023-05-19T15:19:00.262Z,1.85
2023-05-19T15:21:26.870Z,2.20
2023-05-19T15:23:53.340Z,1.75
2023-05-19T15:26:19.899Z,1.95
2023-05-19T15:28:46.497Z,1.77
2023-05-19T15:31:12.969Z,1.30
2023-05-19T15:33:39.484Z,3.15
2023-05-19T15:36:06.084Z,3.42
2023-05-19T15:38:35.144Z,2.17
2023-05-19T15:41:05.672Z,1.98
2023-05-19T15:43:32.236Z,3.28
2023-05-19T15:46:01.593Z,1.23
2023-05-19T15:48:29.045Z,1.77
2023-05-19T15:50:58.140Z,3.75
2023-05-19T15:53:25.121Z,1.55
2023-05-19T15:55:51.704Z,2.13
2023-05-19T15:58:18.301Z,1.90
2023-05-19T16:00:44.844Z,1.77
2023-05-19T16:03:11.420Z,2.05
2023-05-19T16:05:38.014Z,1.13
2023-05-19T16:08:05.958Z,1.80
2023-05-19T16:10:33.861Z,1.95
2023-05-19T16:13:00.668Z,2.65
2023-05-19T16:15:27.088Z,4.40
2023-05-19T16:17:55.051Z,3.22
2023-05-19T16:20:24.071Z,2.90
2023-05-19T16:22:50.528Z,2.05
2023-05-19T16:25:17.122Z,1.10
2023-05-19T16:27:43.609Z,2.33
2023-05-19T16:30:10.300Z,2.33
2023-05-19T16:32:36.863Z,1.25
2023-05-19T16:35:03.627Z,3.08
2023-05-19T16:37:30.140Z,0.93
2023-05-19T16:39:56.754Z,3.20
2023-05-19T16:42:23.364Z,2.72
2023-05-19T16:44:50.029Z,1.98
2023-05-19T16:47:16.493Z,0.90
2023-05-19T16:49:44.080Z,1.92
2023-05-19T16:52:10.974Z,1.85
2023-05-19T16:54:37.475Z,1.63
2023-05-19T16:57:04.039Z,1.80
2023-05-19T16:59:30.532Z,1.45
2023-05-19T17:01:57.153Z,2.70
2023-05-19T17:04:27.526Z,1.42
2023-05-19T17:06:55.821Z,1.50
2023-05-19T17:09:25.288Z,1.40
2023-05-19T17:11:52.553Z,1.75
2023-05-19T17:14:19.179Z,1.30
2023-05-19T17:16:45.806Z,1.70
2023-05-19T17:19:13.675Z,3.42
2023-05-19T17:21:40.520Z,1.02
2023-05-19T17:24:07.015Z,2.00
2023-05-19T17:26:33.535Z,2.63
2023-05-19T17:28:59.950Z,1.25
2023-05-19T17:31:26.401Z,2.22
2023-05-19T17:33:52.892Z,4.57
2023-05-19T17:36:19.400Z,0.75
2023-05-19T17:38:45.969Z,2.00
2023-05-19T17:41:14.161Z,1.98
2023-05-19T17:43:41.551Z,1.23
2023-05-19T17:46:08.214Z,1.42
2023-05-19T17:48:34.761Z,1.85
2023-05-19T17:51:01.665Z,0.93
2023-05-19T17:53:29.300Z,1.25
2023-05-19T17:56:00.289Z,2.70
2023-05-19T17:58:27.158Z,1.65
2023-05-19T18:00:54.251Z,2.50
2023-05-19T18:03:21.390Z,1.10
2023-05-19T18:05:48.183Z,1.00
2023-05-19T18:08:15.109Z,0.73
2023-05-19T18:10:41.996Z,1.52
2023-05-19T18:13:09.244Z,2.38
2023-05-19T18:15:36.233Z,0.90
2023-05-19T18:18:04.374Z,1.15
2023-05-19T18:20:34.593Z,1.15
2023-05-19T18:23:01.601Z,0.85
2023-05-19T18:25:28.185Z,2.30
2023-05-19T18:27:55.862Z,1.05
2023-05-19T18:30:25.052Z,1.00
2023-05-19T18:32:51.554Z,1.95
2023-05-19T18:35:19.292Z,1.02
2023-05-19T18:37:46.282Z,0.73
2023-05-19T18:40:12.851Z,0.68
2023-05-19T18:42:40.048Z,1.52
2023-05-19T18:45:06.669Z,1.20
2023-05-19T18:47:33.154Z,0.73
2023-05-19T18:50:00.065Z,3.00
2023-05-19T18:52:40.772Z,1.50
2023-05-19T18:55:08.579Z,0.77
2023-05-19T18:57:35.070Z,1.65
2023-05-19T19:00:04.657Z,0.93
2023-05-19T19:02:31.409Z,0.70
2023-05-19T19:04:59.353Z,0.52
2023-05-19T19:07:34.055Z,0.98
2023-05-19T19:10:05.391Z,1.30
2023-05-19T19:12:37.422Z,0.95
2023-05-19T19:15:04.273Z,1.52
2023-05-19T19:17:31.099Z,0.90
2023-05-19T19:19:57.618Z,3.63
2023-05-19T19:22:24.169Z,2.72
2023-05-19T19:24:50.639Z,1.00
2023-05-19T19:27:17.738Z,0.90
2023-05-19T19:29:44.288Z,1.30
2023-05-19T19:32:10.909Z,1.42
2023-05-19T19:34:37.493Z,1.65
2023-05-19T19:37:04.080Z,1.20
2023-05-19T19:39:30.717Z,2.17
2023-05-19T19:41:57.175Z,1.33
2023-05-19T19:44:23.916Z,0.98
2023-05-19T19:46:50.894Z,0.40
2023-05-19T19:49:17.409Z,0.50
2023-05-19T19:51:43.970Z,1.75
2023-05-19T19:54:10.498Z,0.45
2023-05-19T19:56:37.027Z,0.52
2023-05-19T19:59:03.471Z,0.63
2023-05-19T20:01:29.971Z,0.50
2023-05-19T20:03:57.491Z,0.75
2023-05-19T20:06:24.075Z,1.73
2023-05-19T20:08:50.579Z,1.08
2023-05-19T20:11:17.480Z,1.52
2023-05-19T20:13:44.085Z,0.50
2023-05-19T20:16:10.745Z,0.40
2023-05-19T20:18:37.324Z,0.70
2023-05-19T20:21:03.860Z,0.55
2023-05-19T20:23:30.509Z,1.13
2023-05-19T20:26:10.747Z,1.42
2023-05-19T20:28:38.669Z,0.70
2023-05-19T20:31:06.359Z,1.20
2023-05-19T20:33:32.795Z,0.70
2023-05-19T20:35:59.367Z,1.42
2023-05-19T20:38:25.931Z,1.02
2023-05-19T20:40:52.697Z,1.80
2023-05-19T20:43:19.376Z,1.23
2023-05-19T20:45:46.469Z,0.68
2023-05-19T20:48:13.026Z,0.98
2023-05-19T20:50:39.578Z,0.70
2023-05-19T20:53:07.507Z,0.52
2023-05-19T20:55:36.147Z,2.15
2023-05-19T20:58:02.797Z,0.50
2023-05-19T21:00:30.612Z,0.93
2023-05-19T21:02:57.503Z,0.93
2023-05-19T21:05:24.287Z,0.77
2023-05-19T21:07:50.875Z,2.72
2023-05-19T21:10:17.992Z,1.63
2023-05-19T21:12:44.517Z,2.30
2023-05-19T21:15:11.282Z,0.93
2023-05-19T21:17:37.781Z,0.65
2023-05-19T21:20:04.644Z,1.35
2023-05-19T21:22:31.199Z,1.83
2023-05-19T21:24:57.990Z,1.30
2023-05-19T21:27:24.542Z,0.80
2023-05-19T21:29:52.812Z,1.13
2023-05-19T21:32:19.377Z,0.85
2023-05-19T21:34:45.839Z,0.55
2023-05-19T21:37:12.361Z,0.70
2023-05-19T21:39:41.822Z,0.57
2023-05-19T21:44:35.100Z,2.80
2023-05-19T21:47:01.497Z,0.82
2023-05-19T21:49:28.135Z,0.73
2023-05-19T21:51:54.653Z,0.50
2023-05-19T21:54:21.137Z,0.73
2023-05-19T21:56:47.621Z,1.20
2023-05-19T21:59:14.268Z,1.70
2023-05-19T22:01:40.964Z,1.52
2023-05-19T22:04:07.772Z,1.15
2023-05-19T22:06:34.472Z,1.65
2023-05-19T22:09:02.566Z,0.60
2023-05-19T22:11:31.524Z,0.90
2023-05-19T22:13:58.060Z,1.08
2023-05-19T22:16:24.640Z,0.90
2023-05-19T22:18:51.656Z,1.75
2023-05-19T22:21:18.204Z,1.30
2023-05-19T22:23:44.800Z,1.25
2023-05-19T22:26:13.402Z,1.13
2023-05-19T22:28:40.003Z,2.97
2023-05-19T22:31:06.485Z,2.38
2023-05-19T22:33:33.251Z,1.85
2023-05-19T22:35:59.701Z,1.55
2023-05-19T22:38:26.415Z,1.50
2023-05-19T22:40:52.871Z,3.22
2023-05-19T22:43:19.420Z,1.10
2023-05-19T22:45:46.245Z,1.00
2023-05-19T22:48:12.730Z,2.20
2023-05-19T22:50:39.274Z,1.50
2023-05-19T22:53:05.735Z,1.50
2023-05-19T22:55:32.443Z,2.80
2023-05-19T22:57:59.523Z,1.38
2023-05-19T23:00:26.128Z,1.35
2023-05-19T23:02:52.671Z,1.65
2023-05-19T23:05:19.290Z,0.73
2023-05-19T23:07:45.944Z,1.90
2023-05-19T23:10:12.430Z,2.05
2023-05-19T23:12:40.131Z,0.88
2023-05-19T23:15:07.367Z,0.70
2023-05-19T23:17:33.831Z,0.60
2023-05-19T23:20:00.608Z,2.10
2023-05-19T23:22:27.095Z,1.00
2023-05-19T23:24:53.522Z,2.05
2023-05-19T23:27:20.008Z,0.55
2023-05-19T23:29:51.448Z,0.82
2023-05-19T23:32:17.990Z,1.17
2023-05-19T23:34:44.455Z,1.77
2023-05-19T23:37:11.725Z,1.15
2023-05-19T23:39:38.448Z,1.50
2023-05-19T23:42:05.789Z,1.85
2023-05-19T23:44:32.297Z,1.92
2023-05-19T23:46:58.831Z,1.17
2023-05-19T23:49:25.448Z,1.30
2023-05-19T23:51:51.956Z,1.05
2023-05-19T23:54:18.385Z,0.70
2023-05-19T23:56:44.909Z,1.77
2023-05-19T23:59:11.406Z,0.93
